createdAt,value
2022-11-06T00:01:19.345Z,17.70
2022-11-06T00:03:46.044Z,21.67
2022-11-06T00:06:34.788Z,18.92
2022-11-06T00:09:04.745Z,18.42
2022-11-06T00:11:31.313Z,19.42
2022-11-06T00:13:58.182Z,20.52
2022-11-06T00:16:24.638Z,18.10
2022-11-06T00:18:51.116Z,21.45
2022-11-06T00:21:20.857Z,23.98
2022-11-06T00:23:47.973Z,18.83
2022-11-06T00:26:17.651Z,25.13
2022-11-06T00:28:44.658Z,20.48
2022-11-06T00:31:16.486Z,19.70
2022-11-06T00:33:43.610Z,19.15
2022-11-06T00:36:13.302Z,27.05
2022-11-06T00:38:39.878Z,22.27
2022-11-06T00:41:10.221Z,16.02
2022-11-06T00:43:37.056Z,21.65
2022-11-06T00:46:14.156Z,22.55
2022-11-06T00:48:41.448Z,21.58
2022-11-06T00:51:14.487Z,23.63
2022-11-06T00:53:42.076Z,19.73
2022-11-06T00:56:17.286Z,20.08
2022-11-06T00:58:44.488Z,21.45
2022-11-06T01:01:24.368Z,16.30
2022-11-06T01:03:57.680Z,23.25
2022-11-06T01:06:27.059Z,31.83
2022-11-06T01:08:54.136Z,21.70
2022-11-06T01:11:27.178Z,21.50
2022-11-06T01:13:56.164Z,23.95
2022-11-06T01:16:23.805Z,24.92
2022-11-06T01:18:51.289Z,16.98
2022-11-06T01:21:20.630Z,23.58
2022-11-06T01:23:47.446Z,18.83
2022-11-06T01:26:16.792Z,18.63
2022-11-06T01:28:47.820Z,19.92
2022-11-06T01:31:18.609Z,21.23
2022-11-06T01:33:45.131Z,18.17
2022-11-06T01:36:13.601Z,16.95
2022-11-06T01:38:41.876Z,16.77
2022-11-06T01:41:08.985Z,16.58
2022-11-06T01:43:54.258Z,20.35
2022-11-06T01:46:23.016Z,19.85
2022-11-06T01:48:54.846Z,25.35
2022-11-06T01:51:23.361Z,19.58
2022-11-06T01:53:50.673Z,19.23
2022-11-06T01:56:18.701Z,24.10
2022-11-06T01:58:46.879Z,21.83
2022-11-06T02:01:13.958Z,19.90
2022-11-06T02:03:47.635Z,22.35
2022-11-06T02:06:14.092Z,20.30
2022-11-06T02:08:40.560Z,20.27
2022-11-06T02:11:07.262Z,22.33
2022-11-06T02:13:33.701Z,24.45
2022-11-06T02:16:27.944Z,23.35
2022-11-06T02:19:22.558Z,17.60
2022-11-06T02:22:23.687Z,18.08
2022-11-06T02:25:18.426Z,17.90
2022-11-06T02:27:58.143Z,25.75
2022-11-06T02:30:24.586Z,19.83
2022-11-06T02:33:23.016Z,21.92
2022-11-06T02:36:10.215Z,21.92
2022-11-06T02:38:41.600Z,16.55
2022-11-06T02:41:17.065Z,20.00
2022-11-06T02:43:47.264Z,19.50
2022-11-06T02:46:20.157Z,18.50
2022-11-06T02:48:50.754Z,19.88
2022-11-06T02:51:23.989Z,21.00
2022-11-06T02:53:50.553Z,18.05
2022-11-06T02:56:22.374Z,20.67
2022-11-06T02:58:57.833Z,19.65
2022-11-06T03:01:29.554Z,19.05
2022-11-06T03:04:03.772Z,16.88
2022-11-06T03:06:46.195Z,20.17
2022-11-06T03:09:18.547Z,16.33
2022-11-06T03:11:51.536Z,18.38
2022-11-06T03:14:25.388Z,22.85
2022-11-06T03:17:10.944Z,20.80
2022-11-06T03:19:47.324Z,18.95
2022-11-06T03:22:32.752Z,21.00
2022-11-06T03:25:08.942Z,19.38
2022-11-06T03:27:55.545Z,18.80
2022-11-06T03:30:22.140Z,21.27
2022-11-06T03:33:02.514Z,24.45
2022-11-06T03:35:36.387Z,23.88
2022-11-06T03:38:20.134Z,18.95
2022-11-06T03:40:51.406Z,25.35
2022-11-06T03:43:22.179Z,22.08
2022-11-06T03:45:52.605Z,23.15
2022-11-06T03:48:34.100Z,29.15
2022-11-06T03:51:05.938Z,25.65
2022-11-06T03:53:48.003Z,21.25
2022-11-06T03:56:25.098Z,24.63
2022-11-06T03:58:52.303Z,22.60
2022-11-06T04:01:27.090Z,26.75
2022-11-06T04:04:02.809Z,26.60
2022-11-06T04:06:35.639Z,24.30
2022-11-06T04:09:23.927Z,18.90
2022-11-06T04:12:10.489Z,31.50
2022-11-06T04:14:42.011Z,23.50
2022-11-06T04:17:11.390Z,19.88
2022-11-06T04:19:41.707Z,21.33
2022-11-06T04:22:55.531Z,27.85
2022-11-06T04:26:12.080Z,24.98
2022-11-06T04:29:28.134Z,23.40
2022-11-06T04:34:44.013Z,19.88
2022-11-06T04:37:28.102Z,20.88
2022-11-06T04:40:18.465Z,24.23
2022-11-06T04:42:54.550Z,22.13
2022-11-06T04:45:25.653Z,17.30
2022-11-06T04:47:53.352Z,21.63
2022-11-06T04:50:22.527Z,26.52
2022-11-06T04:52:49.978Z,26.08
2022-11-06T04:55:16.887Z,27.05
2022-11-06T04:57:43.309Z,25.10
2022-11-06T05:00:14.465Z,25.42
2022-11-06T05:02:41.468Z,22.50
2022-11-06T05:05:08.859Z,28.98
2022-11-06T05:07:35.407Z,31.50
2022-11-06T05:10:01.871Z,28.20
2022-11-06T05:12:28.305Z,28.52
2022-11-06T05:14:54.748Z,31.90
2022-11-06T05:17:21.160Z,28.67
2022-11-06T05:19:47.604Z,28.40
2022-11-06T05:22:32.757Z,23.05
2022-11-06T05:24:59.402Z,27.30
2022-11-06T05:27:26.063Z,30.42
2022-11-06T05:29:52.725Z,31.40
2022-11-06T05:32:19.142Z,27.45
2022-11-06T05:34:46.834Z,28.98
2022-11-06T05:37:14.682Z,27.27
2022-11-06T05:39:42.169Z,28.45
2022-11-06T05:42:09.008Z,33.78
2022-11-06T05:44:35.627Z,32.40
2022-11-06T05:47:02.066Z,33.65
2022-11-06T05:49:28.559Z,25.67
2022-11-06T05:51:55.015Z,27.55
2022-11-06T05:54:21.535Z,32.55
2022-11-06T05:56:47.969Z,30.70
2022-11-06T05:59:14.427Z,30.55
2022-11-06T06:01:41.158Z,29.20
2022-11-06T06:04:07.704Z,30.77
2022-11-06T06:06:34.314Z,28.40
2022-11-06T06:09:00.842Z,27.30
2022-11-06T06:11:27.453Z,29.90
2022-11-06T06:13:53.918Z,31.73
2022-11-06T06:16:20.350Z,46.90
2022-11-06T06:18:49.798Z,32.17
2022-11-06T06:21:16.533Z,28.73
2022-11-06T06:23:42.990Z,29.55
2022-11-06T06:26:09.906Z,27.60
2022-11-06T06:28:36.334Z,29.92
2022-11-06T06:31:07.015Z,35.30
2022-11-06T06:33:34.543Z,37.22
2022-11-06T06:36:04.932Z,25.75
2022-11-06T06:38:31.685Z,29.67
2022-11-06T06:41:06.106Z,32.28
2022-11-06T06:43:33.053Z,35.53
2022-11-06T06:46:01.037Z,29.05
2022-11-06T06:48:27.684Z,27.50
2022-11-06T06:51:00.537Z,30.70
2022-11-06T06:53:27.468Z,29.38
2022-11-06T06:55:53.921Z,32.30
2022-11-06T06:58:21.078Z,28.77
2022-11-06T07:00:47.871Z,34.72
2022-11-06T07:03:14.396Z,28.20
2022-11-06T07:05:40.872Z,26.33
2022-11-06T07:08:07.345Z,23.70
2022-11-06T07:10:33.802Z,22.75
2022-11-06T07:13:06.421Z,25.95
2022-11-06T07:15:33.126Z,23.85
2022-11-06T07:18:07.016Z,26.33
2022-11-06T07:20:34.241Z,24.08
2022-11-06T07:23:06.036Z,20.83
2022-11-06T07:25:32.565Z,24.38
2022-11-06T07:28:06.068Z,21.20
2022-11-06T07:30:34.148Z,24.58
2022-11-06T07:33:02.118Z,129.75
2022-11-06T07:35:29.084Z,118.50
2022-11-06T07:37:55.813Z,627.80
2022-11-06T07:40:22.406Z,768.55
2022-11-06T07:42:48.814Z,1570.88
2022-11-06T07:45:15.538Z,1569.38
2022-11-06T07:47:41.958Z,1999.90
2022-11-06T07:50:08.502Z,20.55
2022-11-06T07:52:35.036Z,67.38
2022-11-06T07:55:01.480Z,13.18
2022-11-06T07:57:27.973Z,11.48
2022-11-06T07:59:54.385Z,12.48
2022-11-06T08:02:21.200Z,10.07
2022-11-06T08:04:47.688Z,11.20
2022-11-06T08:07:14.155Z,11.93
2022-11-06T08:09:40.646Z,12.90
2022-11-06T08:12:08.179Z,12.65
2022-11-06T08:14:40.178Z,12.77
2022-11-06T08:17:07.778Z,12.25
2022-11-06T08:19:34.226Z,12.57
2022-11-06T08:22:00.627Z,13.85
2022-11-06T08:24:27.051Z,12.45
2022-11-06T08:26:53.541Z,11.05
2022-11-06T08:29:19.950Z,12.93
2022-11-06T08:31:46.543Z,13.18
2022-11-06T08:34:13.104Z,12.48
2022-11-06T08:36:45.603Z,11.98
2022-11-06T08:39:16.108Z,15.20
2022-11-06T08:41:42.741Z,12.18
2022-11-06T08:44:09.222Z,13.52
2022-11-06T08:46:36.383Z,14.30
2022-11-06T08:49:02.862Z,11.02
2022-11-06T08:51:29.269Z,12.13
2022-11-06T08:53:55.789Z,15.50
2022-11-06T08:56:22.223Z,13.43
2022-11-06T08:58:54.339Z,16.00
2022-11-06T09:01:23.972Z,12.52
2022-11-06T09:03:50.784Z,11.50
2022-11-06T09:06:17.417Z,13.07
2022-11-06T09:08:43.930Z,11.85
2022-11-06T09:11:11.931Z,14.90
2022-11-06T09:13:39.570Z,13.43
2022-11-06T09:16:10.035Z,10.88
2022-11-06T09:18:39.285Z,12.38
2022-11-06T09:21:05.750Z,11.85
2022-11-06T09:23:32.244Z,11.80
2022-11-06T09:25:58.867Z,14.75
2022-11-06T09:28:25.356Z,14.52
2022-11-06T09:30:51.947Z,11.05
2022-11-06T09:33:18.826Z,11.75
2022-11-06T09:35:45.528Z,10.80
2022-11-06T09:38:12.975Z,14.20
2022-11-06T09:40:47.612Z,12.77
2022-11-06T09:44:04.172Z,10.48
2022-11-06T09:46:31.847Z,13.35
2022-11-06T09:49:33.481Z,10.93
2022-11-06T09:52:13.422Z,13.38
2022-11-06T09:54:50.756Z,12.95
2022-11-06T09:57:34.310Z,11.48
2022-11-06T10:00:02.963Z,11.60
2022-11-06T10:02:37.881Z,12.15
2022-11-06T10:05:23.038Z,12.68
2022-11-06T10:07:52.715Z,13.52
2022-11-06T10:10:23.266Z,12.25
2022-11-06T10:13:43.847Z,12.77
2022-11-06T10:16:22.465Z,12.18
2022-11-06T10:19:04.356Z,11.55
2022-11-06T10:21:48.592Z,12.48
2022-11-06T10:27:04.604Z,14.48
2022-11-06T10:29:45.214Z,14.00
2022-11-06T10:32:35.875Z,11.05
2022-11-06T10:35:15.106Z,11.73
2022-11-06T10:38:13.880Z,10.65
2022-11-06T10:40:43.912Z,10.73
2022-11-06T10:43:51.881Z,10.35
2022-11-06T10:46:28.744Z,11.90
2022-11-06T10:49:04.943Z,11.15
2022-11-06T10:51:55.432Z,9.27
2022-11-06T10:54:45.755Z,10.25
2022-11-06T10:57:35.936Z,9.38
2022-11-06T11:02:39.057Z,9.35
2022-11-06T11:05:18.015Z,10.00
2022-11-06T11:07:46.382Z,9.88
2022-11-06T11:10:31.413Z,7.60
2022-11-06T11:13:05.359Z,9.70
2022-11-06T11:15:44.709Z,8.35
2022-11-06T11:18:22.163Z,8.70
2022-11-06T11:23:21.992Z,10.68
2022-11-06T11:25:51.599Z,9.98
2022-11-06T11:28:25.532Z,6.93
2022-11-06T11:31:01.494Z,7.57
2022-11-06T11:33:28.109Z,9.65
2022-11-06T11:35:55.191Z,11.30
2022-11-06T11:38:22.861Z,7.47
2022-11-06T11:40:51.373Z,8.63
2022-11-06T11:43:20.665Z,8.63
2022-11-06T11:46:09.813Z,8.27
2022-11-06T11:48:43.601Z,8.77
2022-11-06T11:51:30.555Z,10.07
2022-11-06T11:54:06.271Z,8.15
2022-11-06T11:57:03.018Z,8.18
2022-11-06T11:59:25.124Z,8.57
2022-11-06T12:01:52.961Z,9.52
2022-11-06T12:04:24.721Z,8.73
2022-11-06T12:06:54.206Z,10.40
2022-11-06T12:09:21.908Z,9.60
2022-11-06T12:11:48.465Z,8.48
2022-11-06T12:14:21.747Z,9.38
2022-11-06T12:16:51.583Z,9.18
2022-11-06T12:19:21.317Z,8.27
2022-11-06T12:21:54.600Z,9.93
2022-11-06T12:24:32.104Z,8.85
2022-11-06T12:27:04.265Z,9.63
2022-11-06T12:29:42.700Z,7.75
2022-11-06T12:32:24.863Z,8.68
2022-11-06T12:35:01.451Z,8.60
2022-11-06T12:37:39.789Z,7.05
2022-11-06T12:40:25.292Z,8.30
2022-11-06T12:43:02.259Z,8.20
2022-11-06T12:45:45.505Z,7.05
2022-11-06T12:48:44.282Z,8.60
2022-11-06T12:51:31.501Z,6.57
2022-11-06T12:54:02.817Z,8.95
2022-11-06T12:56:41.142Z,9.07
2022-11-06T12:59:23.400Z,8.02
2022-11-06T13:02:16.062Z,9.45
2022-11-06T13:05:03.153Z,6.57
2022-11-06T13:08:03.618Z,7.20
2022-11-06T13:10:48.678Z,8.43
2022-11-06T13:13:48.648Z,7.13
2022-11-06T13:16:39.482Z,8.15
2022-11-06T13:19:14.924Z,6.35
2022-11-06T13:22:04.637Z,7.40
2022-11-06T13:24:42.501Z,7.80
2022-11-06T13:27:35.777Z,7.45
2022-11-06T13:30:13.333Z,9.98
2022-11-06T13:32:41.936Z,9.70
2022-11-06T13:35:21.152Z,7.95
2022-11-06T13:37:49.889Z,8.73
2022-11-06T13:40:22.773Z,8.43
2022-11-06T13:42:57.725Z,5.95
2022-11-06T13:45:24.725Z,6.65
2022-11-06T13:48:23.368Z,5.70
2022-11-06T13:50:59.076Z,6.38
2022-11-06T13:53:38.994Z,9.82
2022-11-06T13:56:29.165Z,8.48
2022-11-06T13:59:23.965Z,6.82
2022-11-06T14:02:19.437Z,8.68
2022-11-06T14:05:15.712Z,7.18
2022-11-06T14:07:42.727Z,7.50
2022-11-06T14:10:24.303Z,6.60
2022-11-06T14:12:51.474Z,9.50
2022-11-06T14:15:20.922Z,14.30
2022-11-06T14:17:56.008Z,21.67
2022-11-06T14:20:37.737Z,12.82
2022-11-06T14:23:29.172Z,8.15
2022-11-06T14:26:10.819Z,8.65
2022-11-06T14:28:40.042Z,9.27
2022-11-06T14:31:12.797Z,8.63
2022-11-06T14:33:41.816Z,6.85
2022-11-06T14:36:29.490Z,9.55
2022-11-06T14:38:55.930Z,11.85
2022-11-06T14:41:34.213Z,7.40
2022-11-06T14:44:14.289Z,7.00
2022-11-06T14:46:49.486Z,11.05
2022-11-06T14:49:27.657Z,8.10
2022-11-06T14:52:01.056Z,7.60
2022-11-06T14:54:28.489Z,6.47
2022-11-06T14:56:55.334Z,8.90
2022-11-06T14:59:40.435Z,7.53
2022-11-06T15:02:19.830Z,8.00
2022-11-06T15:04:53.252Z,9.30
2022-11-06T15:08:10.376Z,7.63
2022-11-06T15:10:42.629Z,7.55
2022-11-06T15:13:18.266Z,12.65
2022-11-06T15:16:12.581Z,11.57
2022-11-06T15:18:42.506Z,7.65
2022-11-06T15:21:16.321Z,10.05
2022-11-06T15:24:11.880Z,9.45
2022-11-06T15:26:45.733Z,7.80
2022-11-06T15:29:15.231Z,6.90
2022-11-06T15:31:51.748Z,9.52
2022-11-06T15:34:31.658Z,7.47
2022-11-06T15:37:23.590Z,9.30
2022-11-06T15:39:56.039Z,7.38
2022-11-06T15:42:28.353Z,10.07
2022-11-06T15:45:08.842Z,7.95
2022-11-06T15:47:38.005Z,7.93
2022-11-06T15:50:23.088Z,10.20
2022-11-06T15:52:49.793Z,12.13
2022-11-06T15:55:26.295Z,8.10
2022-11-06T15:57:53.302Z,7.07
2022-11-06T16:00:25.095Z,8.30
2022-11-06T16:03:00.435Z,8.40
2022-11-06T16:05:32.442Z,8.32
2022-11-06T16:08:00.394Z,9.70
2022-11-06T16:10:27.649Z,8.70
2022-11-06T16:12:55.488Z,6.60
2022-11-06T16:15:51.546Z,11.23
2022-11-06T16:18:23.000Z,6.40
2022-11-06T16:21:00.840Z,9.65
2022-11-06T16:23:47.417Z,8.18
2022-11-06T16:26:18.913Z,8.80
2022-11-06T16:28:48.327Z,8.63
2022-11-06T16:31:18.998Z,9.80
2022-11-06T16:34:05.539Z,9.18
2022-11-06T16:36:57.248Z,11.90
2022-11-06T16:39:35.341Z,8.43
2022-11-06T16:42:10.204Z,9.05
2022-11-06T16:44:36.557Z,7.07
2022-11-06T16:47:13.556Z,8.10
2022-11-06T16:49:42.148Z,7.20
2022-11-06T16:52:29.403Z,7.95
2022-11-06T16:55:21.045Z,7.32
2022-11-06T16:57:59.377Z,10.65
2022-11-06T17:00:29.166Z,8.80
2022-11-06T17:02:58.597Z,8.35
2022-11-06T17:05:27.546Z,9.57
2022-11-06T17:08:26.631Z,10.30
2022-11-06T17:10:55.914Z,12.75
2022-11-06T17:13:28.495Z,11.80
2022-11-06T17:16:00.453Z,12.60
2022-11-06T17:18:36.453Z,10.13
2022-11-06T17:21:17.732Z,9.63
2022-11-06T17:23:45.589Z,10.38
2022-11-06T17:26:25.453Z,8.95
2022-11-06T17:28:52.481Z,15.63
2022-11-06T17:31:20.807Z,10.77
2022-11-06T17:33:47.715Z,10.90
2022-11-06T17:36:18.413Z,12.40
2022-11-06T17:38:45.518Z,10.65
2022-11-06T17:41:11.958Z,10.57
2022-11-06T17:43:38.806Z,8.35
2022-11-06T17:46:05.597Z,11.90
2022-11-06T17:48:32.779Z,10.10
2022-11-06T17:51:17.792Z,10.25
2022-11-06T17:53:44.210Z,9.43
2022-11-06T17:56:10.647Z,13.00
2022-11-06T17:58:37.112Z,10.40
2022-11-06T18:01:08.511Z,10.73
2022-11-06T18:03:45.602Z,12.75
2022-11-06T18:06:13.558Z,12.02
2022-11-06T18:08:40.578Z,12.82
2022-11-06T18:11:08.220Z,13.27
2022-11-06T18:13:36.959Z,13.98
2022-11-06T18:16:04.739Z,15.05
2022-11-06T18:18:34.506Z,24.27
2022-11-06T18:21:01.503Z,28.00
2022-11-06T18:23:27.909Z,21.50
2022-11-06T18:25:56.757Z,21.08
2022-11-06T18:28:26.189Z,20.35
2022-11-06T18:30:52.899Z,24.85
2022-11-06T18:33:19.822Z,19.20
2022-11-06T18:35:46.432Z,14.73
2022-11-06T18:38:13.917Z,12.10
2022-11-06T18:40:46.068Z,12.02
2022-11-06T18:43:16.792Z,13.45
2022-11-06T18:45:43.257Z,25.63
2022-11-06T18:48:09.685Z,11.13
2022-11-06T18:50:37.674Z,9.48
2022-11-06T18:53:04.356Z,12.38
2022-11-06T18:55:31.980Z,12.15
2022-11-06T18:57:58.626Z,14.02
2022-11-06T19:00:25.500Z,11.95
2022-11-06T19:02:52.065Z,16.42
2022-11-06T19:05:18.600Z,11.43
2022-11-06T19:07:51.217Z,12.23
2022-11-06T19:10:19.356Z,13.25
2022-11-06T19:12:45.814Z,14.35
2022-11-06T19:15:12.402Z,11.25
2022-11-06T19:17:38.822Z,13.30
2022-11-06T19:20:07.477Z,11.70
2022-11-06T19:22:34.950Z,13.95
2022-11-06T19:25:01.395Z,13.98
2022-11-06T19:27:27.810Z,12.82
2022-11-06T19:29:54.308Z,14.68
2022-11-06T19:32:20.740Z,14.52
2022-11-06T19:34:47.158Z,12.52
2022-11-06T19:37:13.600Z,23.92
2022-11-06T19:39:41.359Z,14.98
2022-11-06T19:42:07.821Z,14.77
2022-11-06T19:44:34.343Z,12.50
2022-11-06T19:47:00.770Z,15.35
2022-11-06T19:49:27.293Z,12.70
2022-11-06T19:51:53.761Z,14.75
2022-11-06T19:54:20.220Z,13.52
2022-11-06T19:57:29.583Z,13.65
2022-11-06T19:59:34.387Z,15.48
2022-11-06T20:02:00.914Z,11.70
2022-11-06T20:04:28.038Z,13.88
2022-11-06T20:06:54.547Z,13.85
2022-11-06T20:09:21.016Z,14.25
2022-11-06T20:11:47.506Z,14.85
2022-11-06T20:14:18.443Z,16.60
2022-11-06T20:16:46.011Z,16.92
2022-11-06T20:19:12.485Z,13.57
2022-11-06T20:21:39.014Z,15.20
2022-11-06T20:24:05.745Z,16.77
2022-11-06T20:26:32.164Z,16.63
2022-11-06T20:28:58.598Z,16.48
2022-11-06T20:31:25.282Z,14.40
2022-11-06T20:33:52.509Z,15.35
2022-11-06T20:36:27.646Z,13.93
2022-11-06T20:38:56.435Z,15.85
2022-11-06T20:41:23.583Z,16.50
2022-11-06T20:43:51.899Z,17.42
2022-11-06T20:46:19.635Z,16.02
2022-11-06T20:48:46.399Z,17.90
2022-11-06T20:51:15.987Z,16.35
2022-11-06T20:53:42.945Z,16.40
2022-11-06T20:56:11.737Z,18.65
2022-11-06T20:58:38.527Z,18.10
2022-11-06T21:01:06.536Z,17.48
2022-11-06T21:03:33.759Z,19.42
2022-11-06T21:06:00.641Z,18.73
2022-11-06T21:08:28.056Z,19.25
2022-11-06T21:11:03.271Z,17.50
2022-11-06T21:13:33.277Z,17.15
2022-11-06T21:16:06.000Z,20.60
2022-11-06T21:18:35.677Z,18.08
2022-11-06T21:21:07.856Z,19.10
2022-11-06T21:23:34.811Z,20.38
2022-11-06T21:26:13.303Z,18.83
2022-11-06T21:28:41.208Z,21.10
2022-11-06T21:31:13.879Z,18.83
2022-11-06T21:33:45.060Z,21.42
2022-11-06T21:36:14.296Z,19.95
2022-11-06T21:38:42.057Z,19.63
2022-11-06T21:41:11.119Z,19.33
2022-11-06T21:43:38.011Z,20.13
2022-11-06T21:46:06.649Z,19.33
2022-11-06T21:48:45.942Z,20.52
2022-11-06T21:51:18.923Z,20.00
2022-11-06T21:54:04.497Z,19.67
2022-11-06T21:56:30.952Z,22.60
2022-11-06T21:58:59.548Z,18.08
2022-11-06T22:01:27.796Z,20.60
2022-11-06T22:03:54.550Z,21.80
2022-11-06T22:06:24.358Z,19.90
2022-11-06T22:08:52.999Z,22.27
2022-11-06T22:11:26.153Z,20.42
2022-11-06T22:13:54.282Z,20.80
2022-11-06T22:16:25.932Z,20.65
2022-11-06T22:21:21.369Z,20.60
2022-11-06T22:23:48.068Z,21.45
2022-11-06T22:26:18.072Z,20.00
2022-11-06T22:28:44.635Z,24.30
2022-11-06T22:31:11.217Z,21.88
2022-11-06T22:33:38.521Z,18.80
2022-11-06T22:36:11.090Z,21.63
2022-11-06T22:38:39.181Z,21.88
2022-11-06T22:41:07.203Z,19.73
2022-11-06T22:43:34.414Z,21.25
2022-11-06T22:46:03.216Z,21.40
2022-11-06T22:48:30.372Z,20.55
2022-11-06T22:50:57.266Z,21.35
2022-11-06T22:53:23.710Z,20.73
2022-11-06T22:55:55.177Z,20.58
2022-11-06T22:58:21.636Z,19.17
2022-11-06T23:00:51.923Z,20.50
2022-11-06T23:03:19.260Z,21.98
2022-11-06T23:05:46.362Z,23.23
2022-11-06T23:08:13.297Z,20.38
2022-11-06T23:10:40.186Z,20.17
2022-11-06T23:13:06.872Z,20.80
2022-11-06T23:15:33.340Z,19.45
2022-11-06T23:18:00.368Z,18.40
2022-11-06T23:20:29.664Z,22.75
2022-11-06T23:22:56.125Z,23.40
2022-11-06T23:25:22.578Z,20.17
2022-11-06T23:27:50.067Z,20.33
2022-11-06T23:30:16.670Z,19.92
2022-11-06T23:32:43.321Z,24.88
2022-11-06T23:35:13.732Z,23.90
2022-11-06T23:37:42.111Z,20.98
2022-11-06T23:40:10.538Z,23.17
2022-11-06T23:42:37.182Z,20.77
2022-11-06T23:45:23.277Z,19.60
2022-11-06T23:47:50.265Z,18.98
2022-11-06T23:50:17.669Z,18.42
2022-11-06T23:52:44.726Z,21.30
2022-11-06T23:55:11.919Z,20.95
2022-11-06T23:57:38.576Z,21.00
